Southern Lily — 9VJK4 — position and weather

sailwx.info

Track history (hours):
 
Tides and Currents Weather Stations Pressure Air Temp Water Temp Dewpoint Dewpoint Depression Visibility Wind Speed Wind Dir Waves Ship Positions

Southern Lily

Last reported at 2015-Mar-20 15:06 UTC. Time now 2015-Mar-31 03:19 UTC.
Position S 36°13' E 174°57'.
Warning: this ship's position is 10 days out of date.

Length 146 m; draft 5.5 m.

Type: Cargo ship. MMSI: 565050000.

Date/timePositionNaut miles runAvg speedWind from/ knotsBaromVisibWave heightAir tempDewpointWater temp
2015-Mar-20 15:06S 36°13' E 174°57'611.1
2015-Mar-20 14:34S 36°19' E 174°58'1110.8
2015-Mar-20 13:33S 36°30' E 174°59'1110.5
2015-Mar-20 12:33S 36°40' E 174°55'10 9.7
2015-Mar-20 11:33S 36°49' E 174°50'3 3.1
2015-Mar-20 10:33S 36°51' E 174°47'0 0.0
2015-Mar-20 09:33S 36°51' E 174°47'0 0.0
2015-Mar-20 08:33S 36°51' E 174°47'0 0.0
2015-Mar-20 07:34S 36°51' E 174°47'0 0.0
2015-Mar-20 06:33S 36°51' E 174°47'0 0.0
2015-Mar-20 05:33S 36°51' E 174°47'0 0.0
2015-Mar-20 04:32S 36°51' E 174°47'0 0.0
2015-Mar-20 03:32S 36°51' E 174°47'0 0.0
2015-Mar-20 02:32S 36°51' E 174°47'0 0.0
2015-Mar-20 01:31S 36°51' E 174°47'0 0.0
2015-Mar-20 00:33S 36°51' E 174°47'0 0.0
2015-Mar-19 23:33S 36°51' E 174°47'0 0.0
2015-Mar-19 22:33S 36°51' E 174°47'0 0.0
2015-Mar-19 21:33S 36°51' E 174°47'0 0.0
2015-Mar-19 20:33S 36°51' E 174°47'0 0.0
2015-Mar-19 19:33S 36°51' E 174°47'0 0.0
2015-Mar-19 18:31S 36°51' E 174°47'0 0.0
2015-Mar-19 13:33S 36°51' E 174°47'0 0.0
2015-Mar-19 12:33S 36°51' E 174°47'0 0.1
2015-Mar-19 11:33S 36°51' E 174°47'0 0.0
2015-Mar-19 10:34S 36°51' E 174°47'0 0.0
2015-Mar-19 09:33S 36°51' E 174°47'0 0.0
2015-Mar-19 08:34S 36°51' E 174°47'0 0.0
2015-Mar-19 07:33S 36°51' E 174°47'0 0.0
2015-Mar-19 06:34S 36°51' E 174°47'0 0.0
2015-Mar-19 05:33S 36°51' E 174°47'0 0.0
2015-Mar-19 04:34S 36°51' E 174°47'0 0.0
2015-Mar-19 03:33S 36°51' E 174°47'0 0.0
2015-Mar-19 02:33S 36°51' E 174°47'0 0.0
2015-Mar-19 01:33S 36°51' E 174°47'0 0.2
2015-Mar-19 00:34S 36°50' E 174°47'7 7.4
2015-Mar-18 23:34S 36°44' E 174°51'8 8.5
2015-Mar-18 22:34S 36°37' E 174°57'1514.8
2015-Mar-18 21:33S 36°22' E 174°59'1916.6
2015-Mar-18 20:25S 36°03' E 174°58'  
Track history (hours):
 
Tides and Currents Weather Stations Pressure Air Temp Water Temp Dewpoint Dewpoint Depression Visibility Wind Speed Wind Dir Waves Ship Positions

Southern Lily

Last reported at 2015-Mar-20 15:06 UTC. Time now 2015-Mar-31 03:19 UTC.
Position S 36°13' E 174°57'.
Warning: this ship's position is 10 days out of date.

Length 146 m; draft 5.5 m.

Type: Cargo ship. MMSI: 565050000.

Date/timePositionNaut miles runAvg speedWind from/ knotsBaromVisibWave heightAir tempDewpointWater temp
2015-Mar-20 15:06S 36°13' E 174°57'611.1
2015-Mar-20 14:34S 36°19' E 174°58'1110.8
2015-Mar-20 13:33S 36°30' E 174°59'1110.5
2015-Mar-20 12:33S 36°40' E 174°55'10 9.7
2015-Mar-20 11:33S 36°49' E 174°50'3 3.1
2015-Mar-20 10:33S 36°51' E 174°47'0 0.0
2015-Mar-20 09:33S 36°51' E 174°47'0 0.0
2015-Mar-20 08:33S 36°51' E 174°47'0 0.0
2015-Mar-20 07:34S 36°51' E 174°47'0 0.0
2015-Mar-20 06:33S 36°51' E 174°47'0 0.0
2015-Mar-20 05:33S 36°51' E 174°47'0 0.0
2015-Mar-20 04:32S 36°51' E 174°47'0 0.0
2015-Mar-20 03:32S 36°51' E 174°47'0 0.0
2015-Mar-20 02:32S 36°51' E 174°47'0 0.0
2015-Mar-20 01:31S 36°51' E 174°47'0 0.0
2015-Mar-20 00:33S 36°51' E 174°47'0 0.0
2015-Mar-19 23:33S 36°51' E 174°47'0 0.0
2015-Mar-19 22:33S 36°51' E 174°47'0 0.0
2015-Mar-19 21:33S 36°51' E 174°47'0 0.0
2015-Mar-19 20:33S 36°51' E 174°47'0 0.0
2015-Mar-19 19:33S 36°51' E 174°47'0 0.0
2015-Mar-19 18:31S 36°51' E 174°47'0 0.0
2015-Mar-19 13:33S 36°51' E 174°47'0 0.0
2015-Mar-19 12:33S 36°51' E 174°47'0 0.1
2015-Mar-19 11:33S 36°51' E 174°47'0 0.0
2015-Mar-19 10:34S 36°51' E 174°47'0 0.0
2015-Mar-19 09:33S 36°51' E 174°47'0 0.0
2015-Mar-19 08:34S 36°51' E 174°47'0 0.0
2015-Mar-19 07:33S 36°51' E 174°47'0 0.0
2015-Mar-19 06:34S 36°51' E 174°47'0 0.0
2015-Mar-19 05:33S 36°51' E 174°47'0 0.0
2015-Mar-19 04:34S 36°51' E 174°47'0 0.0
2015-Mar-19 03:33S 36°51' E 174°47'0 0.0
2015-Mar-19 02:33S 36°51' E 174°47'0 0.0
2015-Mar-19 01:33S 36°51' E 174°47'0 0.2
2015-Mar-19 00:34S 36°50' E 174°47'7 7.4
2015-Mar-18 23:34S 36°44' E 174°51'8 8.5
2015-Mar-18 22:34S 36°37' E 174°57'1514.8
2015-Mar-18 21:33S 36°22' E 174°59'1916.6
2015-Mar-18 20:25S 36°03' E 174°58'  

Dump ship's entire track history